createdAt,value
2022-10-13T00:00:20.028Z,9.719245
2022-10-13T00:01:20.025Z,9.719187
2022-10-13T00:02:20.443Z,9.719167
2022-10-13T00:03:19.975Z,9.719293
2022-10-13T00:04:19.973Z,9.719197
2022-10-13T00:05:20.002Z,9.719297
2022-10-13T00:06:19.951Z,9.719219
2022-10-13T00:07:19.956Z,9.719341
2022-10-13T00:08:19.907Z,9.719342
2022-10-13T00:09:19.935Z,9.719355
2022-10-13T00:10:19.940Z,9.719340
2022-10-13T00:11:19.899Z,9.719158
2022-10-13T00:12:20.266Z,9.719186
2022-10-13T00:13:19.866Z,9.719291
2022-10-13T00:14:19.866Z,9.719215
2022-10-13T00:15:20.851Z,9.719126
2022-10-13T00:16:19.837Z,9.719176
2022-10-13T00:17:19.842Z,9.719164
2022-10-13T00:18:19.810Z,9.719205
2022-10-13T00:19:19.822Z,9.719199
2022-10-13T00:20:19.860Z,9.719159
2022-10-13T00:21:19.804Z,9.719205
2022-10-13T00:22:21.153Z,9.719162
2022-10-13T00:23:19.769Z,9.719191
2022-10-13T00:24:19.758Z,9.719151
2022-10-13T00:25:19.792Z,9.719171
2022-10-13T00:26:19.735Z,9.719244
2022-10-13T00:27:19.746Z,9.719239
2022-10-13T00:28:19.752Z,9.719234
2022-10-13T00:29:19.702Z,9.719148
2022-10-13T00:30:19.755Z,9.719208
2022-10-13T00:31:19.742Z,9.719166
2022-10-13T00:32:20.053Z,9.719075
2022-10-13T00:33:19.669Z,9.719131
2022-10-13T00:34:19.753Z,9.719181
2022-10-13T00:35:19.669Z,9.719198
2022-10-13T00:36:19.685Z,9.719213
2022-10-13T00:37:19.624Z,9.719204
2022-10-13T00:38:19.622Z,9.719234
2022-10-13T00:39:19.604Z,9.719252
2022-10-13T00:40:19.610Z,9.719215
2022-10-13T00:41:19.599Z,9.719198
2022-10-13T00:42:19.944Z,9.719245
2022-10-13T00:43:19.581Z,9.719271
2022-10-13T00:44:19.564Z,9.719223
2022-10-13T00:45:19.553Z,9.719234
2022-10-13T00:46:19.558Z,9.719261
2022-10-13T00:47:19.547Z,9.719210
2022-10-13T00:48:19.541Z,9.719062
2022-10-13T00:49:19.543Z,9.719104
2022-10-13T00:50:19.514Z,9.719208
2022-10-13T00:51:19.514Z,9.719244
2022-10-13T00:52:19.802Z,9.719177
2022-10-13T00:53:19.470Z,9.719164
2022-10-13T00:54:19.602Z,9.719161
2022-10-13T00:55:19.461Z,9.719239
2022-10-13T00:56:19.449Z,9.719247
2022-10-13T00:57:19.466Z,9.719281
2022-10-13T00:58:19.433Z,9.719382
2022-10-13T00:59:19.414Z,9.719357
2022-10-13T01:00:19.417Z,9.719441
2022-10-13T01:01:19.377Z,9.719484
2022-10-13T01:02:19.673Z,9.719579
2022-10-13T01:03:19.403Z,9.719552
2022-10-13T01:04:19.374Z,9.719583
2022-10-13T01:05:19.375Z,9.719580
2022-10-13T01:06:23.436Z,9.719622
2022-10-13T01:07:20.356Z,9.719604
2022-10-13T01:08:19.335Z,9.719566
2022-10-13T01:09:19.343Z,9.719368
2022-10-13T01:10:19.341Z,9.719290
2022-10-13T01:11:19.289Z,9.719284
2022-10-13T01:12:19.600Z,9.719393
2022-10-13T01:13:19.297Z,9.719522
2022-10-13T01:14:19.271Z,9.719527
2022-10-13T01:15:19.262Z,9.719417
2022-10-13T01:16:19.258Z,9.719515
2022-10-13T01:17:19.233Z,9.719460
2022-10-13T01:18:19.222Z,9.719483
2022-10-13T01:19:19.245Z,9.719414
2022-10-13T01:20:19.241Z,9.719418
2022-10-13T01:21:19.219Z,9.719410
2022-10-13T01:22:19.589Z,9.719410
2022-10-13T01:23:19.186Z,9.719491
2022-10-13T01:24:19.214Z,9.719501
2022-10-13T01:25:19.181Z,9.719504
2022-10-13T01:26:19.165Z,9.719439
2022-10-13T01:27:19.213Z,9.719329
2022-10-13T01:28:19.163Z,9.719254
2022-10-13T01:29:19.111Z,9.719281
2022-10-13T01:30:19.102Z,9.719178
2022-10-13T01:31:19.136Z,9.719268
2022-10-13T01:32:19.405Z,9.719262
2022-10-13T01:33:19.079Z,9.719413
2022-10-13T01:34:19.074Z,9.719413
2022-10-13T01:35:19.104Z,9.719413
2022-10-13T01:36:19.058Z,9.719413
2022-10-13T01:37:19.033Z,9.719413
2022-10-13T01:38:19.058Z,9.719697
2022-10-13T01:39:19.016Z,9.719578
2022-10-13T01:40:19.035Z,9.719407
2022-10-13T01:41:19.021Z,9.719337
2022-10-13T01:42:19.305Z,9.719190
2022-10-13T01:43:18.982Z,9.719070
2022-10-13T01:44:19.011Z,9.718968
2022-10-13T01:45:18.962Z,9.718934
2022-10-13T01:46:19.987Z,9.719107
2022-10-13T01:47:18.947Z,9.718914
2022-10-13T01:48:18.933Z,9.718933
2022-10-13T01:49:18.926Z,9.719134
2022-10-13T01:50:18.954Z,9.719096
2022-10-13T01:51:18.909Z,9.719114
2022-10-13T01:52:19.275Z,9.719011
2022-10-13T01:53:18.901Z,9.719028
2022-10-13T01:54:18.889Z,9.719057
2022-10-13T01:55:18.874Z,9.719065
2022-10-13T01:56:18.858Z,9.719061
2022-10-13T01:57:18.842Z,9.719170
2022-10-13T01:58:18.834Z,9.719188
2022-10-13T01:59:18.840Z,9.719097
2022-10-13T02:00:18.813Z,9.719016
2022-10-13T02:01:18.802Z,9.718884
2022-10-13T02:02:19.272Z,9.719014
2022-10-13T02:03:18.800Z,9.719092
2022-10-13T02:04:18.823Z,9.719120
2022-10-13T02:05:18.788Z,9.719075
2022-10-13T02:06:18.770Z,9.719062
2022-10-13T02:07:18.763Z,9.719040
2022-10-13T02:08:18.757Z,9.719071
2022-10-13T02:09:18.741Z,9.719109
2022-10-13T02:10:18.727Z,9.719077
2022-10-13T02:11:18.721Z,9.719024
2022-10-13T02:12:18.936Z,9.719029
2022-10-13T02:13:18.711Z,9.719106
2022-10-13T02:14:18.682Z,9.719111
2022-10-13T02:15:18.683Z,9.719110
2022-10-13T02:16:18.653Z,9.718972
2022-10-13T02:17:18.678Z,9.719027
2022-10-13T02:18:18.671Z,9.719062
2022-10-13T02:19:18.658Z,9.719136
2022-10-13T02:20:18.628Z,9.719162
2022-10-13T02:21:18.628Z,9.719103
2022-10-13T02:22:18.924Z,9.719105
2022-10-13T02:23:18.625Z,9.719137
2022-10-13T02:24:18.591Z,9.719116
2022-10-13T02:25:18.596Z,9.719144
2022-10-13T02:26:18.595Z,9.719105
2022-10-13T02:27:18.632Z,9.719172
2022-10-13T02:28:18.600Z,9.719106
2022-10-13T02:29:18.533Z,9.719199
2022-10-13T02:30:18.513Z,9.719347
2022-10-13T02:31:19.533Z,9.719507
2022-10-13T02:32:18.812Z,9.719387
2022-10-13T02:33:18.549Z,9.719228
2022-10-13T02:34:18.494Z,9.719438
2022-10-13T02:35:18.497Z,9.719247
2022-10-13T02:36:28.383Z,9.719229
2022-10-13T02:37:18.445Z,9.719420
2022-10-13T02:38:18.455Z,9.719360
2022-10-13T02:39:18.450Z,9.719372
2022-10-13T02:40:18.451Z,9.719362
2022-10-13T02:41:18.416Z,9.719309
2022-10-13T02:42:19.073Z,9.719425
2022-10-13T02:43:18.391Z,9.719295
2022-10-13T02:44:18.388Z,9.719336
2022-10-13T02:45:18.400Z,9.719357
2022-10-13T02:46:18.367Z,9.719187
2022-10-13T02:47:18.367Z,9.719304
2022-10-13T02:48:18.353Z,9.719333
2022-10-13T02:49:18.355Z,9.719308
2022-10-13T02:50:18.354Z,9.719348
2022-10-13T02:51:18.313Z,9.719278
2022-10-13T02:52:18.638Z,9.719283
2022-10-13T02:53:18.324Z,9.719270
2022-10-13T02:54:18.283Z,9.719339
2022-10-13T02:55:18.274Z,9.719332
2022-10-13T02:56:18.265Z,9.719320
2022-10-13T02:57:18.255Z,9.719252
2022-10-13T02:58:18.260Z,9.719293
2022-10-13T02:59:18.235Z,9.719329
2022-10-13T03:00:18.260Z,9.719289
2022-10-13T03:01:18.223Z,9.719262
2022-10-13T03:02:18.783Z,9.719232
2022-10-13T03:03:18.212Z,9.719270
2022-10-13T03:04:18.316Z,9.719328
2022-10-13T03:05:18.191Z,9.719271
2022-10-13T03:06:18.179Z,9.719322
2022-10-13T03:07:18.157Z,9.719324
2022-10-13T03:08:18.146Z,9.719287
2022-10-13T03:09:18.151Z,9.719270
2022-10-13T03:10:18.124Z,9.719252
2022-10-13T03:11:18.111Z,9.719241
2022-10-13T03:12:18.368Z,9.719262
2022-10-13T03:13:18.095Z,9.719254
2022-10-13T03:14:18.105Z,9.719223
2022-10-13T03:15:18.072Z,9.719277
2022-10-13T03:16:18.067Z,9.719310
2022-10-13T03:17:18.064Z,9.719229
2022-10-13T03:18:18.049Z,9.719201
2022-10-13T03:19:18.061Z,9.719230
2022-10-13T03:20:18.028Z,9.719247
2022-10-13T03:21:18.019Z,9.719188
2022-10-13T03:22:18.345Z,9.719131
2022-10-13T03:23:18.001Z,9.719174
2022-10-13T03:24:17.990Z,9.719108
2022-10-13T03:25:17.986Z,9.719159
2022-10-13T03:26:17.966Z,9.719130
2022-10-13T03:27:17.982Z,9.719109
2022-10-13T03:28:17.992Z,9.719008
2022-10-13T03:29:17.945Z,9.719008
2022-10-13T03:30:17.927Z,9.719110
2022-10-13T03:31:17.914Z,9.719108
2022-10-13T03:32:18.283Z,9.719126
2022-10-13T03:33:17.907Z,9.719115
2022-10-13T03:34:17.893Z,9.719194
2022-10-13T03:35:17.881Z,9.719100
2022-10-13T03:36:17.872Z,9.719033
2022-10-13T03:37:17.866Z,9.719157
2022-10-13T03:38:17.869Z,9.719293
2022-10-13T03:39:17.843Z,9.719316
2022-10-13T03:40:17.828Z,9.719208
2022-10-13T03:41:17.824Z,9.719276
2022-10-13T03:42:18.130Z,9.719148
2022-10-13T03:43:17.819Z,9.719060
2022-10-13T03:44:17.789Z,9.719071
2022-10-13T03:45:17.781Z,9.719141
2022-10-13T03:46:17.774Z,9.719170
2022-10-13T03:47:17.760Z,9.719090
2022-10-13T03:48:17.755Z,9.719001
2022-10-13T03:49:17.763Z,9.719272
2022-10-13T03:50:17.732Z,9.719193
2022-10-13T03:51:17.719Z,9.719106
2022-10-13T03:52:18.155Z,9.719199
2022-10-13T03:53:17.701Z,9.719269
2022-10-13T03:54:17.701Z,9.719239
2022-10-13T03:55:17.676Z,9.719158
2022-10-13T03:56:17.674Z,9.719254
2022-10-13T03:57:17.679Z,9.719368
2022-10-13T03:58:17.662Z,9.719279
2022-10-13T03:59:17.631Z,9.719295
2022-10-13T04:00:17.630Z,9.719337
2022-10-13T04:01:17.628Z,9.719273
2022-10-13T04:02:17.937Z,9.719138
2022-10-13T04:03:17.604Z,9.719111
2022-10-13T04:04:17.599Z,9.719102
2022-10-13T04:05:17.607Z,9.719179
2022-10-13T04:06:17.579Z,9.719273
2022-10-13T04:07:17.570Z,9.719222
2022-10-13T04:08:17.549Z,9.719196
2022-10-13T04:09:17.554Z,9.719215
2022-10-13T04:10:17.545Z,9.719219
2022-10-13T04:11:17.551Z,9.719212
2022-10-13T04:12:20.868Z,9.719240
2022-10-13T04:13:18.517Z,9.719190
2022-10-13T04:14:17.500Z,9.719216
2022-10-13T04:15:17.492Z,9.719164
2022-10-13T04:16:17.506Z,9.719208
2022-10-13T04:17:17.478Z,9.719209
2022-10-13T04:18:17.474Z,9.719246
2022-10-13T04:19:17.449Z,9.719219
2022-10-13T04:20:17.440Z,9.719217
2022-10-13T04:21:17.437Z,9.719166
2022-10-13T04:22:17.829Z,9.719099
2022-10-13T04:23:17.409Z,9.719102
2022-10-13T04:24:17.409Z,9.719099
2022-10-13T04:25:17.390Z,9.719201
2022-10-13T04:26:17.389Z,9.719166
2022-10-13T04:27:17.416Z,9.719178
2022-10-13T04:28:17.417Z,9.719296
2022-10-13T04:29:17.346Z,9.719208
2022-10-13T04:30:17.342Z,9.719250
2022-10-13T04:31:17.339Z,9.719171
2022-10-13T04:32:17.703Z,9.719175
2022-10-13T04:33:17.370Z,9.719198
2022-10-13T04:34:17.308Z,9.719232
2022-10-13T04:35:17.288Z,9.719357
2022-10-13T04:36:17.288Z,9.719336
2022-10-13T04:37:17.278Z,9.719097
2022-10-13T04:38:17.291Z,9.719094
2022-10-13T04:39:17.260Z,9.719136
2022-10-13T04:40:17.264Z,9.719113
2022-10-13T04:41:17.229Z,9.719238
2022-10-13T04:42:17.585Z,9.719242
2022-10-13T04:43:17.216Z,9.719157
2022-10-13T04:44:17.201Z,9.719095
2022-10-13T04:45:17.208Z,9.718944
2022-10-13T04:46:17.186Z,9.719261
2022-10-13T04:47:17.176Z,9.719215
2022-10-13T04:48:17.157Z,9.719108
2022-10-13T04:49:17.168Z,9.719224
2022-10-13T04:50:18.162Z,9.719275
2022-10-13T04:51:17.135Z,9.719206
2022-10-13T04:52:17.321Z,9.719289
2022-10-13T04:53:19.314Z,9.719193
2022-10-13T04:54:18.110Z,9.719284
2022-10-13T04:55:17.088Z,9.719269
2022-10-13T04:56:17.109Z,9.719298
2022-10-13T04:57:17.075Z,9.719111
2022-10-13T04:58:17.064Z,9.719060
2022-10-13T04:59:17.062Z,9.719039
2022-10-13T05:00:17.050Z,9.719206
2022-10-13T05:01:21.349Z,9.719147
2022-10-13T05:02:18.326Z,9.719232
2022-10-13T05:03:17.010Z,9.719182
2022-10-13T05:04:17.011Z,9.719203
2022-10-13T05:05:17.007Z,9.719191
2022-10-13T05:06:17.010Z,9.719316
2022-10-13T05:07:18.470Z,9.719049
2022-10-13T05:08:17.976Z,9.719085
2022-10-13T05:09:16.959Z,9.718715
2022-10-13T05:10:16.952Z,9.719019
2022-10-13T05:11:16.956Z,9.719168
2022-10-13T05:12:17.086Z,9.719033
2022-10-13T05:13:16.917Z,9.719170
2022-10-13T05:14:16.912Z,9.719311
2022-10-13T05:15:16.903Z,9.719172
2022-10-13T05:16:16.889Z,9.719151
2022-10-13T05:17:17.003Z,9.719105
2022-10-13T05:18:16.892Z,9.719223
2022-10-13T05:19:16.866Z,9.719206
2022-10-13T05:20:16.858Z,9.719154
2022-10-13T05:21:16.843Z,9.718961
2022-10-13T05:22:17.071Z,9.719077
2022-10-13T05:23:16.816Z,9.719044
2022-10-13T05:24:16.806Z,9.719150
2022-10-13T05:25:16.811Z,9.719165
2022-10-13T05:26:16.797Z,9.719023
2022-10-13T05:27:16.796Z,9.719332
2022-10-13T05:28:16.890Z,9.719279
2022-10-13T05:29:16.784Z,9.719151
2022-10-13T05:30:16.778Z,9.719079
2022-10-13T05:31:16.742Z,9.719097
2022-10-13T05:32:17.002Z,9.719169
2022-10-13T05:33:16.713Z,9.719124
2022-10-13T05:34:16.728Z,9.719057
2022-10-13T05:35:16.716Z,9.719159
2022-10-13T05:36:16.691Z,9.718975
2022-10-13T05:37:16.688Z,9.719194
2022-10-13T05:38:16.684Z,9.719048
2022-10-13T05:39:16.723Z,9.719242
2022-10-13T05:40:16.643Z,9.719143
2022-10-13T05:41:16.645Z,9.719064
2022-10-13T05:42:16.764Z,9.719074
2022-10-13T05:43:16.640Z,9.718972
2022-10-13T05:44:16.629Z,9.718999
2022-10-13T05:45:16.603Z,9.719151
2022-10-13T05:46:16.596Z,9.718987
2022-10-13T05:47:16.608Z,9.719092
2022-10-13T05:48:16.577Z,9.719047
2022-10-13T05:49:16.569Z,9.719169
2022-10-13T05:50:16.558Z,9.719103
2022-10-13T05:51:16.559Z,9.719116
2022-10-13T05:52:16.784Z,9.719006
2022-10-13T05:53:16.542Z,9.719015
2022-10-13T05:54:16.532Z,9.719001
2022-10-13T05:55:16.512Z,9.719002
2022-10-13T05:56:16.528Z,9.719180
2022-10-13T05:57:16.486Z,9.719236
2022-10-13T05:58:16.476Z,9.719122
2022-10-13T05:59:16.495Z,9.719171
2022-10-13T06:00:16.489Z,9.719144
2022-10-13T06:01:16.471Z,9.719404
2022-10-13T06:02:16.501Z,9.719447
2022-10-13T06:03:16.433Z,9.719418
2022-10-13T06:04:16.422Z,9.719285
2022-10-13T06:05:16.422Z,9.719058
2022-10-13T06:06:16.401Z,9.719049
2022-10-13T06:07:16.412Z,9.718983
2022-10-13T06:08:16.380Z,9.719060
2022-10-13T06:09:16.374Z,9.719224
2022-10-13T06:10:16.362Z,9.719133
2022-10-13T06:11:16.356Z,9.719142
2022-10-13T06:12:16.391Z,9.719198
2022-10-13T06:13:16.372Z,9.719141
2022-10-13T06:14:16.323Z,9.719233
2022-10-13T06:15:16.329Z,9.719259
2022-10-13T06:16:16.305Z,9.719180
2022-10-13T06:17:16.325Z,9.719204
2022-10-13T06:18:16.341Z,9.718938
2022-10-13T06:19:16.279Z,9.719010
2022-10-13T06:20:16.263Z,9.719049
2022-10-13T06:21:16.264Z,9.719049
2022-10-13T06:22:16.242Z,9.719145
2022-10-13T06:23:16.242Z,9.719348
2022-10-13T06:24:16.245Z,9.719273
2022-10-13T06:25:16.214Z,9.718913
2022-10-13T06:26:16.213Z,9.718945
2022-10-13T06:27:16.201Z,9.718933
2022-10-13T06:28:16.261Z,9.718992
2022-10-13T06:29:16.209Z,9.719130
2022-10-13T06:30:16.177Z,9.719342
2022-10-13T06:31:16.162Z,9.719286
2022-10-13T06:32:16.163Z,9.719148
2022-10-13T06:33:16.145Z,9.719023
2022-10-13T06:34:16.156Z,9.718946
2022-10-13T06:35:16.140Z,9.719025
2022-10-13T06:36:16.123Z,9.719070
2022-10-13T06:37:16.122Z,9.719147
2022-10-13T06:38:16.092Z,9.719020
2022-10-13T06:39:16.091Z,9.718934
2022-10-13T06:40:16.109Z,9.719026
2022-10-13T06:41:16.072Z,9.718960
2022-10-13T06:42:16.061Z,9.719059
2022-10-13T06:43:16.053Z,9.719125
2022-10-13T06:44:16.033Z,9.719082
2022-10-13T06:45:16.048Z,9.719188
2022-10-13T06:46:16.007Z,9.719187
2022-10-13T06:47:16.035Z,9.719384
2022-10-13T06:48:15.997Z,9.719045
2022-10-13T06:49:15.989Z,9.719242
2022-10-13T06:50:15.983Z,9.719153
2022-10-13T06:51:16.001Z,9.719185
2022-10-13T06:52:15.979Z,9.718900
2022-10-13T06:53:15.947Z,9.719302
2022-10-13T06:54:15.948Z,9.719097
2022-10-13T06:55:15.927Z,9.719019
2022-10-13T06:56:15.910Z,9.719205
2022-10-13T06:57:15.905Z,9.718908
2022-10-13T06:58:15.901Z,9.718855
2022-10-13T06:59:15.889Z,9.719221
2022-10-13T07:00:15.907Z,9.719936
2022-10-13T07:01:15.859Z,9.719969
2022-10-13T07:02:15.848Z,9.720005
2022-10-13T07:03:15.854Z,9.719727
2022-10-13T07:04:15.824Z,9.719543
2022-10-13T07:05:15.843Z,9.719397
2022-10-13T07:06:15.829Z,9.719475
2022-10-13T07:07:15.805Z,9.719513
2022-10-13T07:08:15.798Z,9.719966
2022-10-13T07:09:15.782Z,9.719700
2022-10-13T07:10:15.794Z,9.719888
2022-10-13T07:11:16.621Z,9.720004
2022-10-13T07:12:15.764Z,9.719857
2022-10-13T07:13:15.823Z,9.719954
2022-10-13T07:14:15.741Z,9.720243
2022-10-13T07:15:15.728Z,9.719896
2022-10-13T07:16:15.757Z,9.720172
2022-10-13T07:17:15.708Z,9.720205
2022-10-13T07:18:15.692Z,9.720816
2022-10-13T07:19:15.705Z,9.719836
2022-10-13T07:20:15.699Z,9.719726
2022-10-13T07:21:15.685Z,9.719726
2022-10-13T07:22:15.662Z,9.719299
2022-10-13T07:23:15.644Z,9.719793
2022-10-13T07:24:15.644Z,9.719209
2022-10-13T07:25:15.656Z,9.719181
2022-10-13T07:26:15.631Z,9.719378
2022-10-13T07:27:15.630Z,9.719392
2022-10-13T07:28:15.644Z,9.719388
2022-10-13T07:29:15.640Z,9.719265
2022-10-13T07:30:15.583Z,9.719146
2022-10-13T07:31:15.579Z,9.719165
2022-10-13T07:32:15.564Z,9.719136
2022-10-13T07:33:15.557Z,9.719254
2022-10-13T07:34:15.582Z,9.719276
2022-10-13T07:35:15.540Z,9.719300
2022-10-13T07:36:15.536Z,9.719414
2022-10-13T07:37:15.534Z,9.719189
2022-10-13T07:38:15.534Z,9.719043
2022-10-13T07:39:15.502Z,9.719073
2022-10-13T07:40:15.500Z,9.719073
2022-10-13T07:41:15.484Z,9.719233
2022-10-13T07:42:15.459Z,9.719360
2022-10-13T07:43:16.465Z,9.719337
2022-10-13T07:44:15.456Z,9.719518
2022-10-13T07:45:15.440Z,9.719341
2022-10-13T07:46:15.430Z,9.719222
2022-10-13T07:47:15.445Z,9.719323
2022-10-13T07:48:15.444Z,9.719296
2022-10-13T07:49:16.380Z,9.719306
2022-10-13T07:50:15.391Z,9.719262
2022-10-13T07:51:15.377Z,9.719213
2022-10-13T07:52:15.420Z,9.719273
2022-10-13T07:53:15.383Z,9.719367
2022-10-13T07:54:15.355Z,9.719342
2022-10-13T07:55:15.342Z,9.719409
2022-10-13T07:56:15.360Z,9.719167
2022-10-13T07:57:15.325Z,9.719276
2022-10-13T07:58:15.330Z,9.719311
2022-10-13T07:59:15.302Z,9.719258
2022-10-13T08:00:15.295Z,9.719813
2022-10-13T08:01:15.337Z,9.719234
2022-10-13T08:02:15.291Z,9.719024
2022-10-13T08:03:15.289Z,9.719348
2022-10-13T08:04:15.261Z,9.719172
2022-10-13T08:05:15.245Z,9.719089
2022-10-13T08:06:15.990Z,9.719050
2022-10-13T08:07:15.242Z,9.719259
2022-10-13T08:08:15.247Z,9.719274
2022-10-13T08:09:15.223Z,9.719438
2022-10-13T08:10:15.216Z,9.719216
2022-10-13T08:11:16.731Z,9.718998
2022-10-13T08:12:15.178Z,9.718924
2022-10-13T08:13:15.181Z,9.719318
2022-10-13T08:14:15.174Z,9.719191
2022-10-13T08:15:15.155Z,9.719336
2022-10-13T08:16:15.178Z,9.719231
2022-10-13T08:17:15.123Z,9.719280
2022-10-13T08:18:15.130Z,9.719280
2022-10-13T08:19:15.112Z,9.719263
2022-10-13T08:20:15.089Z,9.719351
2022-10-13T08:22:16.093Z,9.719331
2022-10-13T08:23:15.071Z,9.719299
2022-10-13T08:24:15.053Z,9.719257
2022-10-13T08:25:15.074Z,9.719243
2022-10-13T08:26:15.040Z,9.719293
2022-10-13T08:27:15.039Z,9.719348
2022-10-13T08:28:15.061Z,9.719317
2022-10-13T08:29:23.338Z,9.719215
2022-10-13T08:30:17.128Z,9.719150
2022-10-13T08:31:15.160Z,9.719204
2022-10-13T08:32:14.991Z,9.719258
2022-10-13T08:33:14.965Z,9.719153
2022-10-13T08:34:14.971Z,9.719333
2022-10-13T08:35:14.971Z,9.719338
2022-10-13T08:36:14.978Z,9.719355
2022-10-13T08:37:46.825Z,9.719386
2022-10-13T08:38:14.933Z,9.719437
2022-10-13T08:39:14.912Z,9.719272
2022-10-13T08:40:14.903Z,9.719308
2022-10-13T08:41:14.919Z,9.719264
2022-10-13T08:42:14.891Z,9.719331
2022-10-13T08:43:14.877Z,9.719357
2022-10-13T08:44:59.224Z,9.719343
2022-10-13T08:45:39.853Z,9.719342
2022-10-13T08:46:16.857Z,9.719367
2022-10-13T08:47:14.844Z,9.719405
2022-10-13T08:48:14.830Z,9.719377
2022-10-13T08:49:14.845Z,9.719354
2022-10-13T08:50:14.906Z,9.719397
2022-10-13T08:51:14.802Z,9.719313
2022-10-13T08:52:14.819Z,9.719323
2022-10-13T08:53:14.784Z,9.719373
2022-10-13T08:54:14.769Z,9.719409
2022-10-13T08:55:14.790Z,9.719397
2022-10-13T08:56:14.755Z,9.719405
2022-10-13T08:57:14.753Z,9.719357
2022-10-13T08:58:14.753Z,9.719440
2022-10-13T08:59:14.728Z,9.719377
2022-10-13T09:00:14.747Z,9.719363
2022-10-13T09:01:14.830Z,9.719345
2022-10-13T09:02:14.691Z,9.719378
2022-10-13T09:03:14.673Z,9.719345
2022-10-13T09:04:14.677Z,9.719431
2022-10-13T09:05:14.673Z,9.719384
2022-10-13T09:06:14.695Z,9.719390
2022-10-13T09:07:14.658Z,9.719409
2022-10-13T09:08:14.635Z,9.719329
2022-10-13T09:09:14.621Z,9.719347
2022-10-13T09:10:14.614Z,9.719323
2022-10-13T09:11:14.625Z,9.719303
2022-10-13T09:12:14.610Z,9.719349
2022-10-13T09:13:14.599Z,9.719311
2022-10-13T09:14:14.602Z,9.719389
2022-10-13T09:15:14.591Z,9.719344
2022-10-13T09:16:14.569Z,9.719341
2022-10-13T09:18:14.547Z,9.719309
2022-10-13T09:19:14.598Z,9.719234
2022-10-13T09:20:14.509Z,9.719333
2022-10-13T09:21:14.511Z,9.719352
2022-10-13T09:22:14.494Z,9.719339
2022-10-13T09:23:14.487Z,9.719381
2022-10-13T09:24:14.521Z,9.719380
2022-10-13T09:25:14.510Z,9.719355
2022-10-13T09:26:14.500Z,9.719255
2022-10-13T09:27:15.464Z,9.719228
2022-10-13T09:28:14.474Z,9.719335
2022-10-13T09:29:14.443Z,9.719293
2022-10-13T09:30:14.417Z,9.719481
2022-10-13T09:31:14.415Z,9.719322
2022-10-13T09:32:14.426Z,9.719319
2022-10-13T09:33:14.390Z,9.719315
2022-10-13T09:34:14.389Z,9.719397
2022-10-13T09:35:14.384Z,9.719342
2022-10-13T09:36:14.394Z,9.719378
2022-10-13T09:37:14.355Z,9.719315
2022-10-13T09:38:14.358Z,9.719331
2022-10-13T09:39:14.336Z,9.719415
2022-10-13T09:40:14.327Z,9.719422
2022-10-13T09:41:14.318Z,9.719522
2022-10-13T09:42:14.312Z,9.719434
2022-10-13T09:43:14.317Z,9.719259
2022-10-13T09:44:14.287Z,9.719172
2022-10-13T09:45:14.321Z,9.719151
2022-10-13T09:46:14.304Z,9.719201
2022-10-13T09:47:14.303Z,9.719414
2022-10-13T09:48:14.259Z,9.719351
2022-10-13T09:49:14.243Z,9.719341
2022-10-13T09:50:14.290Z,9.719302
2022-10-13T09:51:14.232Z,9.719187
2022-10-13T09:52:14.228Z,9.719263
2022-10-13T09:53:14.216Z,9.719277
2022-10-13T09:54:14.245Z,9.719198
2022-10-13T09:55:14.179Z,9.718753
2022-10-13T09:56:14.228Z,9.719053
2022-10-13T09:57:14.189Z,9.719068
2022-10-13T09:58:14.154Z,9.718852
2022-10-13T09:59:14.156Z,9.718860
2022-10-13T10:00:14.226Z,9.719134
2022-10-13T10:01:14.129Z,9.719061
2022-10-13T10:02:18.020Z,9.719139
2022-10-13T10:03:15.147Z,9.718928
2022-10-13T10:04:14.141Z,9.718946
2022-10-13T10:05:14.093Z,9.719325
2022-10-13T10:06:14.085Z,9.719272
2022-10-13T10:07:14.066Z,9.719132
2022-10-13T10:08:14.097Z,9.719085
2022-10-13T10:09:14.059Z,9.719248
2022-10-13T10:10:14.115Z,9.719184
2022-10-13T10:11:14.038Z,9.719140
2022-10-13T10:12:14.062Z,9.719022
2022-10-13T10:13:14.025Z,9.719142
2022-10-13T10:14:13.991Z,9.719124
2022-10-13T10:15:13.995Z,9.719146
2022-10-13T10:16:13.985Z,9.719026
2022-10-13T10:17:13.991Z,9.718908
2022-10-13T10:18:13.944Z,9.719128
2022-10-13T10:19:13.945Z,9.719058
2022-10-13T10:20:13.984Z,9.719043
2022-10-13T10:21:13.959Z,9.718978
2022-10-13T10:22:13.915Z,9.719056
2022-10-13T10:23:13.905Z,9.719105
2022-10-13T10:24:13.941Z,9.719014
2022-10-13T10:25:13.881Z,9.719167
2022-10-13T10:26:13.870Z,9.719367
2022-10-13T10:27:13.913Z,9.719202
2022-10-13T10:28:13.954Z,9.719256
2022-10-13T10:29:13.838Z,9.719345
2022-10-13T10:30:13.849Z,9.719040
2022-10-13T10:31:13.826Z,9.719078
2022-10-13T10:32:13.840Z,9.718923
2022-10-13T10:33:13.797Z,9.719101
2022-10-13T10:34:15.471Z,9.719164
2022-10-13T10:35:13.804Z,9.719115
2022-10-13T10:36:13.788Z,9.719303
2022-10-13T10:37:13.793Z,9.719315
2022-10-13T10:38:13.784Z,9.719189
2022-10-13T10:39:13.772Z,9.719286
2022-10-13T10:40:13.753Z,9.719319
2022-10-13T10:41:13.720Z,9.719280
2022-10-13T10:42:13.825Z,9.719316
2022-10-13T10:43:13.738Z,9.719265
2022-10-13T10:44:13.749Z,9.719329
2022-10-13T10:45:13.726Z,9.719283
2022-10-13T10:46:13.694Z,9.719210
2022-10-13T10:47:13.675Z,9.719212
2022-10-13T10:48:13.663Z,9.719122
2022-10-13T10:49:13.659Z,9.719247
2022-10-13T10:50:13.638Z,9.719110
2022-10-13T10:51:13.643Z,9.719271
2022-10-13T10:52:13.634Z,9.719206
2022-10-13T10:53:13.621Z,9.719253
2022-10-13T10:54:13.628Z,9.719273
2022-10-13T10:55:13.608Z,9.719359
2022-10-13T10:56:13.576Z,9.719562
2022-10-13T10:57:13.568Z,9.719423
2022-10-13T10:58:13.559Z,9.719390
2022-10-13T10:59:13.578Z,9.719186
2022-10-13T11:00:13.613Z,9.719131
2022-10-13T11:01:13.563Z,9.719315
2022-10-13T11:02:13.522Z,9.719080
2022-10-13T11:03:13.510Z,9.719047
2022-10-13T11:04:13.504Z,9.719125
2022-10-13T11:05:13.515Z,9.719310
2022-10-13T11:06:13.484Z,9.719049
2022-10-13T11:07:13.543Z,9.719334
2022-10-13T11:08:13.463Z,9.719196
2022-10-13T11:09:13.455Z,9.719391
2022-10-13T11:10:13.462Z,9.719324
2022-10-13T11:11:13.453Z,9.719044
2022-10-13T11:12:13.450Z,9.719196
2022-10-13T11:13:13.423Z,9.719306
2022-10-13T11:14:13.421Z,9.719347
2022-10-13T11:15:13.384Z,9.719337
2022-10-13T11:16:13.399Z,9.719180
2022-10-13T11:17:13.400Z,9.719157
2022-10-13T11:18:13.435Z,9.719095
2022-10-13T11:19:13.369Z,9.719207
2022-10-13T11:20:13.353Z,9.719380
2022-10-13T11:21:13.346Z,9.719740
2022-10-13T11:22:13.324Z,9.719529
2022-10-13T11:23:13.322Z,9.719408
2022-10-13T11:24:13.291Z,9.719394
2022-10-13T11:25:13.284Z,9.719231
2022-10-13T11:26:13.283Z,9.719197
2022-10-13T11:27:13.291Z,9.719163
2022-10-13T11:28:13.302Z,9.719256
2022-10-13T11:29:13.242Z,9.719356
2022-10-13T11:30:13.249Z,9.719361
2022-10-13T11:31:13.247Z,9.719263
2022-10-13T11:32:13.232Z,9.719193
2022-10-13T11:33:13.211Z,9.719242
2022-10-13T11:34:13.192Z,9.719286
2022-10-13T11:35:13.193Z,9.719255
2022-10-13T11:36:13.181Z,9.719335
2022-10-13T11:37:13.171Z,9.719288
2022-10-13T11:38:17.595Z,9.719322
2022-10-13T11:39:14.167Z,9.719279
2022-10-13T11:40:13.146Z,9.719254
2022-10-13T11:41:13.140Z,9.719107
2022-10-13T11:42:13.117Z,9.719247
2022-10-13T11:43:14.121Z,9.719319
2022-10-13T11:44:13.100Z,9.719258
2022-10-13T11:45:13.090Z,9.719212
2022-10-13T11:46:13.069Z,9.719198